LSGM7: Little Sugar Creek nr Pineville 7SW

Data processed at Fri Mar 09 2018 23:31


All information presented herein is the property of the government of the United States of America and may be revised or deleted at any time without prior notice.
Dissemination of this information without the expressed written consent of the Public Affairs Office, Tulsa District U.S. Army Corps of Engineers is strictly prohibited.
These data are gathered electronically and, as presented, have not undergone any form of quality control. These data are not guaranteed to be valid or correct.
Go to home page.
Go to station list.

Downstream station:


Previous Day
Next Day
Current Day
    
SHEF ID:       LSGM7     Little Sugar Creek near Pinevill
STATION TYPE:  

               PRECIP     STAGE  STAGE(2)  RIV-FLOW   VOLTAGE
                   in        ft        ft       cfs      volt
              Ccp-Rev   Ccp-Rev   Ccp-Rev   Ccp-Rev   Ccp-Rev
(US/Central)
03/07 00:00      0.00      3.91      3.90       232     12.47
03/07 01:00      0.00      3.92      3.90       234     12.47
03/07 02:00      0.00      3.89      3.91       227      2.05
03/07 03:00      0.00      3.90      3.91       229     12.24
03/07 04:00      0.00      3.89      3.90       227     12.47
03/07 05:00      0.00      3.89      3.90       227     12.47
03/07 06:00      0.00      3.88      3.89       224     12.47
03/07 07:00      0.00      3.88      3.89       224     12.47
03/07 08:00      0.00      3.86      3.87       219     12.47
03/07 09:00      0.00      3.87      3.85       222     12.47
03/07 10:00      0.00      3.87      3.85       222      2.06
03/07 11:00      0.00      3.86      3.85       219     13.17
03/07 12:00      0.00      3.85      3.86       217     13.88
03/07 13:00      0.00      3.84      3.85       214     14.11
03/07 14:00      0.00      3.84      3.84       214     13.88
03/07 15:00      0.00      3.83      3.83       212     14.11
03/07 16:00      0.00      3.83      3.83       212     13.64
03/07 17:00      0.00      3.83      3.84       212     13.41
03/07 18:00      0.00      3.82      3.83       210      2.07
03/07 19:00      0.00      3.81      3.86       207     12.24
03/07 20:00      0.00      3.81      3.85       207     12.71
03/07 21:00      0.00      3.80      3.85       205     12.71
03/07 22:00      0.00      3.80      3.83       205     12.47
03/07 23:00      0.00      3.80      3.83       205     12.47